Solidarnosc (vanuatu) — YJZC9 — position and weather

sailwx.info

Track history (hours):
 
Tides and Currents Weather Stations Pressure Air Temp Water Temp Dewpoint Dewpoint Depression Visibility Wind Speed Wind Dir Waves Ship Positions

Solidarnosc (vanuatu)

Last reported at 2014-Nov-21 20:33 UTC. Time now 2014-Nov-23 19:01 UTC.
Position N 27°01' W 079°42'.

Length 229 m; beam 32 m.

Type: Ship. MMSI: 576005000.

Date/timePositionNaut miles runAvg speedWind from/ knotsBaromVisibWave heightAir tempDewpointWater temp
2014-Nov-21 20:33N 27°01' W 079°42'1515.1
2014-Nov-21 19:33N 26°46' W 079°44'1514.8
2014-Nov-21 18:33N 26°31' W 079°45'1414.5
2014-Nov-21 17:33N 26°17' W 079°47'1414.3
2014-Nov-21 16:33N 26°02' W 079°48'1414.2
2014-Nov-21 15:33N 25°48' W 079°50'1413.9
2014-Nov-21 14:33N 25°35' W 079°53'  
2014-Nov-19 05:21N 29°53' W 089°58'6 4.9
2014-Nov-19 04:12N 29°57' W 090°02'6 8.7
2014-Nov-19 03:30N 29°55' W 090°08'  
2014-Nov-14 17:32N 29°57' W 090°08'7 7.1
2014-Nov-14 16:33N 29°57' W 090°00'5 4.0
2014-Nov-14 15:23N 29°52' W 089°58'  
Track history (hours):
 
Tides and Currents Weather Stations Pressure Air Temp Water Temp Dewpoint Dewpoint Depression Visibility Wind Speed Wind Dir Waves Ship Positions

Solidarnosc (vanuatu)

Last reported at 2014-Nov-21 20:33 UTC. Time now 2014-Nov-23 19:01 UTC.
Position N 27°01' W 079°42'.

Length 229 m; beam 32 m.

Type: Ship. MMSI: 576005000.

Date/timePositionNaut miles runAvg speedWind from/ knotsBaromVisibWave heightAir tempDewpointWater temp
2014-Nov-21 20:33N 27°01' W 079°42'1515.1
2014-Nov-21 19:33N 26°46' W 079°44'1514.8
2014-Nov-21 18:33N 26°31' W 079°45'1414.5
2014-Nov-21 17:33N 26°17' W 079°47'1414.3
2014-Nov-21 16:33N 26°02' W 079°48'1414.2
2014-Nov-21 15:33N 25°48' W 079°50'1413.9
2014-Nov-21 14:33N 25°35' W 079°53'  
2014-Nov-19 05:21N 29°53' W 089°58'6 4.9
2014-Nov-19 04:12N 29°57' W 090°02'6 8.7
2014-Nov-19 03:30N 29°55' W 090°08'  
2014-Nov-14 17:32N 29°57' W 090°08'7 7.1
2014-Nov-14 16:33N 29°57' W 090°00'5 4.0
2014-Nov-14 15:23N 29°52' W 089°58'  

Dump ship's entire track history